Benton, KY

8:27 AM CDT on September 26, 2016 (GMT -0500)
Jason's House | | Change Station

Elev 456 ft 36.85 °N, 88.35 °W | Updated 9 seconds ago

Rain
Rain
61.2 °F
Feels Like 61.2 °F
N
0.0
Wind Variable Wind from North
Gusts 7.0 mph

Today
High -- | Low -- °F
--% Chance of Precip.
Yesterday
High -- | Low -- °F
Precip. -- in
Pressure 30.14 in
Visibility 0.5 miles
Clouds Mostly Cloudy 400 ft
Overcast 2400 ft
Dew Point 60 °F
Humidity 95%
Rainfall 0.32 in
Snow Depth Not available.
6:44 AM 6:43 PM
Waning Crescent, 19% visible
METAR KCEY 261315Z AUTO 36007KT 1/2SM BKN004 OVC024 15/15 A3014 RMK AO1 P0027
Pressure 30.14 in
Visibility 0.5 miles
Clouds Mostly Cloudy 400 ft
Overcast 2400 ft
Dew Point 60 °F
Humidity 95%
Rainfall 0.32 in
Snow Depth Not available.
6:44 AM 6:43 PM
Waning Crescent, 19% visible
METAR KCEY 261315Z AUTO 36007KT 1/2SM BKN004 OVC024 15/15 A3014 RMK AO1 P0027

10-Day Weather Forecast

Almanac

Astronomy

Sep. 26, 2016 Rise Set
Actual Time
Civil Twilight
Nautical Twilight
Astronomical Twilight
Moon
Length of Visible Light
Length of Day
Tomorrow will be .
, % of the Moon is Illuminated

Today's Extremes

State Highs State Lows

Community

WunderPhotos

Upload Photos

1,941,881 photos uploaded!

WunderBlog® & News

Nearby

Air Quality

  Air Quality AQ Index Pollutant
Not available.

Snow Depth

Station Depth Elevation

Earthquake Activity

City Distance Mag. Time & Date
Minimum magnitude displayed is 2.5.

Coastal Water Temperatures

Place Temperature

Stations

Nearby Weather Stations

Station Location Temp. Windchill Dew Point Humidity Wind Precip. Elev Updated Type
                   

Watches & Warnings

There are currently no watches in effect.